North Newton, Kansas
Current Conditions -  °F | °C
As of 12:15 AM on Thursday 23 Oct 2014 (Local Time) from KEWK Reporting Station
Overcast Overcast  
Wind Chill: 61°   Ceiling: 11000
Heat Index: 61°   Visibility: 10mi
Dew Point: 54°   Wind: 10mph
Humidity: 77%   Direction: 210°SSW
Pressure: 30.1"   Gusts: NA
Location:  38.07°N, 97.35°W
Report Text: KEWK 230515Z AUTO 21009KT 10SM SCT095 OVC110 16/12 A3010 RMK AO1
Loading
Personal Weather Stations






























Interactive Weather Map
Tropical Storm Tracking
New forecast layout! Learn more

10-Day Weather Forecast

Advertisements
Track Severe Weather on mobile